Decoded Metar for SBCG (CAMPO GRANDE in BRAZIL) (IATA:CGR) | Meteo·Mobile Aviation Weather
aviador You're here:

SBCG Decoded Metar

CAMPO GRANDE in BRAZIL
Report Time2018-10-22 14:00:00
UTC Time2018-10-22 14:28:06
Flight Rules vfr VFR
Wind050° at 10 kt
W.Decomp.*RWY 06: 9.9 kt HW 1.0 kt RCW
W.Rank050° ranks 9
Current wind is above 050° avg. (7.6)
Visibility9999 m
Phenomena:N/A
Clouds:N/A
Expected CloudBase > 4,800 ft AGL from Temp-Dew spread
CeilingNone
Temp30°C (ISA +19)
Dew Point18°C (49% RH)
Heat Index30.9°C
AAT29.2°C
QNH1014 hPa
Density Alt4,242 ft
Elevation1,860 ft
Report Wrong Elevation
Raw Report
METAR SBCG 221400Z 05010KT 020V080 CAVOK 30/18 Q1014=

Extra information for SBCG:More info

Metar Taf Metar & Taf Last 4 Metars F.Rules Stats Wind Profile Meteogram Temp Stats Airport Information Weather charts Add Link Nearby VenuesMetar ALERT Operation Metar Decoded Social comments